Time;durP1;ratioP1;P1;durP2;ratioP2;P2;SDS_P1;SDS_P2;PMS_P1;PMS_P2;Temp;Humidity;BMP_temperature;BMP_pressure;BME280_temperature;BME280_humidity;BME280_pressure;Samples;Min_cycle;Max_cycle;Signal;HPM_P1;HPM_P2
2021/07/11 00:00:32;;;;;;;23.83;21.07;;;16.40;99.90;;;;;;5036462;28;20227;-70
2021/07/11 00:02:57;;;;;;;23.40;20.83;;;16.40;99.90;;;;;;5053958;28;20197;-70
2021/07/11 00:05:25;;;;;;;22.70;20.40;;;16.40;99.90;;;;;;5035364;28;20216;-70
2021/07/11 00:07:51;;;;;;;23.77;21.17;;;16.40;99.90;;;;;;5054320;28;20216;-70
2021/07/11 00:10:17;;;;;;;23.90;21.17;;;16.40;99.90;;;;;;5053007;28;20170;-71
2021/07/11 00:12:46;;;;;;;22.83;20.53;;;16.40;99.90;;;;;;5052605;28;20182;-70
2021/07/11 00:15:14;;;;;;;22.17;19.93;;;16.30;99.90;;;;;;5034763;28;20207;-70
2021/07/11 00:17:41;;;;;;;23.80;21.30;;;16.30;99.90;;;;;;5052684;28;20194;-69
2021/07/11 00:20:09;;;;;;;24.00;21.40;;;16.30;99.90;;;;;;5052834;28;20178;-70
2021/07/11 00:22:35;;;;;;;24.90;21.80;;;16.30;99.90;;;;;;5051823;28;20259;-70
2021/07/11 00:25:00;;;;;;;22.80;20.40;;;16.40;99.90;;;;;;5052585;28;20228;-69
2021/07/11 00:27:26;;;;;;;24.33;22.03;;;16.50;99.90;;;;;;5058075;28;20185;-69
2021/07/11 00:29:51;;;;;;;24.43;21.83;;;16.50;99.90;;;;;;5072358;28;20757;-69
2021/07/11 00:32:17;;;;;;;23.53;21.17;;;16.60;99.90;;;;;;5071818;28;20641;-70
2021/07/11 00:34:42;;;;;;;25.63;21.70;;;16.60;99.90;;;;;;5072030;28;20228;-72
2021/07/11 00:37:08;;;;;;;26.03;23.20;;;16.70;99.90;;;;;;5113894;22;20313;-76
2021/07/11 00:39:34;;;;;;;24.30;21.73;;;16.70;99.90;;;;;;5092890;28;20255;-76
2021/07/11 00:41:59;;;;;;;24.83;22.17;;;16.80;99.90;;;;;;5096621;28;20276;-76
2021/07/11 00:44:25;;;;;;;23.43;20.97;;;16.80;99.90;;;;;;5107491;28;20201;-76
2021/07/11 00:46:51;;;;;;;21.77;19.67;;;16.90;99.90;;;;;;5108709;28;20291;-76
2021/07/11 00:49:17;;;;;;;22.00;19.67;;;16.90;99.90;;;;;;5091308;28;20168;-74
2021/07/11 00:51:42;;;;;;;20.70;18.73;;;16.90;99.90;;;;;;5115370;28;20262;-74
2021/07/11 00:54:08;;;;;;;21.10;19.00;;;16.90;99.90;;;;;;5116693;28;20179;-73
2021/07/11 00:56:34;;;;;;;19.63;17.57;;;17.00;99.90;;;;;;5118224;28;20208;-73
2021/07/11 00:58:59;;;;;;;18.07;16.30;;;17.00;99.90;;;;;;5117447;28;20180;-73
2021/07/11 01:01:38;;;;;;;17.50;15.73;;;17.00;99.90;;;;;;5117117;28;20240;-74
2021/07/11 01:04:43;;;;;;;17.43;15.20;;;17.10;99.90;;;;;;5116131;28;20168;-74
2021/07/11 01:07:10;;;;;;;14.17;12.83;;;17.10;99.90;;;;;;5098615;28;20245;-75
2021/07/11 01:09:41;;;;;;;15.37;13.87;;;17.00;99.90;;;;;;5094939;28;20172;-75
2021/07/11 01:12:17;;;;;;;15.03;13.17;;;17.00;99.90;;;;;;5075334;28;20207;-75
2021/07/11 01:14:44;;;;;;;13.33;12.03;;;16.90;99.90;;;;;;5093422;28;20180;-76
2021/07/11 01:17:11;;;;;;;13.13;11.63;;;16.90;99.90;;;;;;5093483;28;20239;-76
2021/07/11 01:19:48;;;;;;;12.67;11.43;;;16.90;99.90;;;;;;5093986;28;20184;-76
2021/07/11 01:22:17;;;;;;;11.63;10.47;;;16.90;99.90;;;;;;5092276;28;20192;-76
2021/07/11 01:38:58;;;;;;;9.93;8.77;;;16.90;99.90;;;;;;5093214;28;20210;-76
2021/07/11 01:41:23;;;;;;;11.97;10.07;;;16.90;99.90;;;;;;5079424;28;20203;-76
2021/07/11 01:43:55;;;;;;;9.27;8.37;;;17.00;99.90;;;;;;5077143;28;20228;-77
2021/07/11 01:46:22;;;;;;;10.17;8.77;;;17.00;99.90;;;;;;5072415;28;20281;-76
2021/07/11 01:48:48;;;;;;;10.70;8.43;;;17.00;99.90;;;;;;5057815;28;20271;-76
2021/07/11 01:51:14;;;;;;;9.03;7.60;;;17.00;99.90;;;;;;5075929;28;20161;-75
2021/07/11 01:53:44;;;;;;;8.93;8.03;;;17.00;99.90;;;;;;5073553;28;20518;-76
2021/07/11 01:56:09;;;;;;;9.77;7.77;;;17.00;99.90;;;;;;5073784;28;20597;-75
2021/07/11 01:58:36;;;;;;;8.37;7.43;;;17.10;99.90;;;;;;5073746;28;20173;-74
2021/07/11 02:01:04;;;;;;;8.07;7.27;;;17.00;99.90;;;;;;5072951;28;20297;-76
2021/07/11 02:03:30;;;;;;;7.30;6.70;;;17.10;99.90;;;;;;5075044;28;20230;-76
2021/07/11 02:05:56;;;;;;;9.73;7.27;;;17.10;99.90;;;;;;5073704;28;20558;-76
2021/07/11 02:08:22;;;;;;;7.67;6.87;;;17.10;99.90;;;;;;5055169;28;20179;-76
2021/07/11 02:10:49;;;;;;;8.63;7.00;;;17.00;99.90;;;;;;5073766;28;20175;-76
2021/07/11 02:13:48;;;;;;;7.67;6.87;;;17.10;99.90;;;;;;5073343;28;20256;-76
2021/07/11 02:16:37;;;;;;;7.97;6.00;;;17.10;99.90;;;;;;5060923;28;20231;-76
2021/07/11 02:19:03;;;;;;;6.67;6.07;;;17.10;99.90;;;;;;5072564;28;20180;-76
2021/07/11 02:21:30;;;;;;;6.60;6.00;;;17.10;99.90;;;;;;5053730;28;20173;-76
2021/07/11 02:24:00;;;;;;;6.03;5.53;;;17.10;99.90;;;;;;5074912;28;20180;-76
2021/07/11 02:26:26;;;;;;;6.40;5.80;;;17.10;99.90;;;;;;5073967;28;20187;-76
2021/07/11 02:28:52;;;;;;;7.13;5.47;;;17.10;99.90;;;;;;5073308;28;20207;-76
2021/07/11 02:31:19;;;;;;;6.83;5.60;;;17.10;99.90;;;;;;5054931;28;20690;-76
2021/07/11 02:33:46;;;;;;;6.03;5.53;;;17.10;99.90;;;;;;5073143;28;20165;-75
2021/07/11 02:36:17;;;;;;;8.10;5.57;;;17.20;99.90;;;;;;5072776;28;20197;-75
2021/07/11 02:38:54;;;;;;;6.17;5.57;;;17.20;99.90;;;;;;5075114;28;20394;-75
2021/07/11 02:41:22;;;;;;;5.47;4.97;;;17.20;99.90;;;;;;5093405;28;20168;-75
2021/07/11 02:43:49;;;;;;;5.23;4.80;;;17.20;99.90;;;;;;5075061;28;20315;-75
2021/07/11 02:46:24;;;;;;;5.90;4.67;;;17.20;99.90;;;;;;5094250;28;20180;-75
2021/07/11 02:48:51;;;;;;;8.47;5.27;;;17.20;99.90;;;;;;5093867;28;20167;-75
2021/07/11 02:51:21;;;;;;;5.23;4.73;;;17.20;99.90;;;;;;5103505;28;20164;-76
2021/07/11 02:53:48;;;;;;;6.67;4.93;;;17.20;99.90;;;;;;5114492;28;20559;-76
2021/07/11 02:56:17;;;;;;;6.00;4.80;;;17.20;99.90;;;;;;5094745;28;20304;-76
2021/07/11 02:58:45;;;;;;;7.47;5.30;;;17.20;99.90;;;;;;5112683;28;20168;-76
2021/07/11 03:01:11;;;;;;;5.27;4.40;;;17.20;99.90;;;;;;5112776;28;20160;-76
2021/07/11 03:03:37;;;;;;;9.97;5.27;;;17.20;99.90;;;;;;5114292;28;20198;-76
2021/07/11 03:06:03;;;;;;;5.13;4.63;;;17.20;99.90;;;;;;5113728;28;20190;-75
2021/07/11 03:08:28;;;;;;;4.50;4.10;;;17.20;99.90;;;;;;5097816;28;20174;-75
2021/07/11 03:10:56;;;;;;;4.53;4.00;;;17.20;99.90;;;;;;5115021;28;20176;-75
2021/07/11 03:13:23;;;;;;;6.00;4.50;;;17.10;99.90;;;;;;5113779;28;20175;-76
2021/07/11 03:15:49;;;;;;;6.07;4.53;;;17.10;99.90;;;;;;5113474;28;20558;-75
2021/07/11 03:18:17;;;;;;;4.60;4.20;;;17.10;99.90;;;;;;5113725;28;20258;-77
2021/07/11 03:20:46;;;;;;;6.87;4.20;;;17.20;99.90;;;;;;5113167;28;20176;-76
2021/07/11 03:23:12;;;;;;;4.13;3.70;;;17.20;99.90;;;;;;5113547;28;20191;-75
2021/07/11 03:25:38;;;;;;;8.23;4.07;;;17.20;99.90;;;;;;5094957;28;20203;-76
2021/07/11 03:28:06;;;;;;;6.67;4.50;;;17.20;99.90;;;;;;5095212;28;20186;-76
2021/07/11 03:30:39;;;;;;;4.17;3.87;;;17.20;99.90;;;;;;5112906;28;20240;-76
2021/07/11 03:33:07;;;;;;;6.23;3.90;;;17.20;99.90;;;;;;5114717;28;20641;-76
2021/07/11 03:35:36;;;;;;;5.63;3.70;;;17.30;99.90;;;;;;5112887;28;20299;-76
2021/07/11 03:38:03;;;;;;;7.10;3.80;;;17.30;99.90;;;;;;5113880;28;20172;-76
2021/07/11 03:40:31;;;;;;;3.60;3.00;;;17.30;99.90;;;;;;5112651;28;20180;-76
2021/07/11 03:43:03;;;;;;;4.37;3.50;;;17.30;99.90;;;;;;5113600;28;20229;-75
2021/07/11 03:45:30;;;;;;;4.80;3.40;;;17.40;99.90;;;;;;5114062;28;20190;-75
2021/07/11 03:48:11;;;;;;;5.40;3.47;;;17.50;99.90;;;;;;5117485;28;20167;-75
2021/07/11 03:50:39;;;;;;;7.00;3.93;;;17.60;99.90;;;;;;5098853;28;20171;-75
2021/07/11 03:53:09;;;;;;;3.67;3.17;;;17.70;99.90;;;;;;5118012;28;20201;-75
2021/07/11 03:55:36;;;;;;;7.10;3.73;;;17.80;99.90;;;;;;5105057;28;20197;-76
2021/07/11 03:58:03;;;;;;;7.37;3.40;;;17.80;99.90;;;;;;5093882;28;20209;-75
2021/07/11 04:00:30;;;;;;;3.80;3.20;;;18.00;99.90;;;;;;5089737;28;20227;-74
2021/07/11 04:02:57;;;;;;;6.10;3.30;;;18.50;99.90;;;;;;5098658;28;20215;-73
2021/07/11 04:05:28;;;;;;;4.63;3.10;;;18.90;99.90;;;;;;5081600;28;20181;-74
2021/07/11 04:07:55;;;;;;;3.53;3.23;;;18.50;99.90;;;;;;5081265;28;20177;-74
2021/07/11 04:10:24;;;;;;;5.03;3.27;;;18.30;99.90;;;;;;5097934;28;20158;-73
2021/07/11 04:12:49;;;;;;;4.97;3.30;;;18.70;99.90;;;;;;5098636;28;20177;-74
2021/07/11 04:15:15;;;;;;;3.70;2.80;;;19.10;99.90;;;;;;5079761;28;20199;-74
2021/07/11 04:17:47;;;;;;;4.17;2.87;;;19.30;99.90;;;;;;5081296;28;20260;-75
2021/07/11 04:20:14;;;;;;;3.87;3.43;;;19.00;99.90;;;;;;5077198;28;20286;-77
2021/07/11 04:22:41;;;;;;;5.27;3.50;;;18.90;99.90;;;;;;5058471;28;20205;-77
2021/07/11 04:25:10;;;;;;;5.27;3.10;;;18.80;99.90;;;;;;5041979;28;20173;-76
2021/07/11 04:27:37;;;;;;;5.00;3.70;;;18.70;99.90;;;;;;5075879;28;20219;-76
2021/07/11 04:30:04;;;;;;;4.87;3.40;;;18.60;99.90;;;;;;5075299;28;20180;-76
2021/07/11 04:32:29;;;;;;;3.40;2.93;;;18.50;99.90;;;;;;5075118;28;20302;-77
2021/07/11 04:34:55;;;;;;;4.87;3.23;;;18.40;99.90;;;;;;5075615;28;20181;-76
2021/07/11 04:37:20;;;;;;;4.00;3.60;;;18.50;99.90;;;;;;5074929;28;20322;-75
2021/07/11 04:39:46;;;;;;;6.20;3.40;;;18.50;99.90;;;;;;5074908;28;20177;-75
2021/07/11 04:42:12;;;;;;;4.90;3.40;;;18.40;99.90;;;;;;5074668;28;20300;-76
2021/07/11 04:44:40;;;;;;;6.40;3.53;;;18.30;99.90;;;;;;5057778;28;20173;-75
2021/07/11 04:47:06;;;;;;;5.00;3.30;;;18.30;99.90;;;;;;5058849;28;20800;-76
2021/07/11 04:49:31;;;;;;;3.60;3.30;;;18.30;99.90;;;;;;5082981;28;20201;-76
2021/07/11 04:52:03;;;;;;;5.80;2.90;;;18.30;99.90;;;;;;5099286;28;20177;-76
2021/07/11 04:54:28;;;;;;;5.57;3.23;;;18.40;99.90;;;;;;5097667;28;20165;-75
2021/07/11 04:56:54;;;;;;;4.60;3.40;;;18.50;99.90;;;;;;5095960;28;20700;-75
2021/07/11 04:59:19;;;;;;;4.90;3.90;;;18.60;99.90;;;;;;5079265;28;20177;-76
2021/07/11 05:01:45;;;;;;;5.53;3.40;;;18.80;99.90;;;;;;5108397;28;20172;-75
2021/07/11 05:04:11;;;;;;;3.87;3.13;;;18.90;99.90;;;;;;5119103;28;20195;-75
2021/07/11 05:06:36;;;;;;;4.93;3.40;;;19.00;99.90;;;;;;5134698;28;20188;-75
2021/07/11 05:09:03;;;;;;;4.47;3.00;;;19.00;99.90;;;;;;5127310;28;20194;-75
2021/07/11 05:11:29;;;;;;;4.37;3.50;;;19.10;99.90;;;;;;5130906;28;20168;-75
2021/07/11 05:13:54;;;;;;;4.77;3.53;;;19.20;99.90;;;;;;5118343;28;20179;-75
2021/07/11 05:16:20;;;;;;;4.07;3.30;;;19.20;99.90;;;;;;5114885;28;20210;-75
2021/07/11 05:18:46;;;;;;;4.93;3.00;;;19.30;99.90;;;;;;5116239;28;20285;-77
2021/07/11 05:21:12;;;;;;;4.10;3.33;;;19.40;99.90;;;;;;5115206;28;20191;-76
2021/07/11 05:23:37;;;;;;;4.93;3.00;;;19.40;99.90;;;;;;5113632;28;20713;-76
2021/07/11 05:26:03;;;;;;;3.40;3.10;;;19.20;99.90;;;;;;5114168;28;20599;-76
2021/07/11 05:28:28;;;;;;;4.43;2.97;;;19.40;99.90;;;;;;5114488;28;20167;-76
2021/07/11 05:30:54;;;;;;;4.53;3.37;;;19.40;99.90;;;;;;5097863;28;20224;-76
2021/07/11 05:33:19;;;;;;;5.47;3.17;;;19.40;99.90;;;;;;5114404;28;20572;-76
2021/07/11 05:35:45;;;;;;;3.50;2.93;;;19.50;99.90;;;;;;5115422;28;20211;-76
2021/07/11 05:38:10;;;;;;;4.47;3.20;;;19.50;99.90;;;;;;5096120;28;20635;-75
2021/07/11 05:40:36;;;;;;;3.20;3.00;;;19.60;99.90;;;;;;5113112;28;20172;-75
2021/07/11 05:43:02;;;;;;;4.47;3.20;;;19.80;99.90;;;;;;5114046;28;20340;-76
2021/07/11 05:45:27;;;;;;;4.00;2.90;;;19.90;99.90;;;;;;5114606;28;20214;-76
2021/07/11 05:47:53;;;;;;;5.20;3.00;;;19.70;99.90;;;;;;5095375;28;20192;-76
2021/07/11 05:50:18;;;;;;;3.33;2.73;;;20.00;99.90;;;;;;5113675;28;20221;-76
2021/07/11 05:52:44;;;;;;;3.40;3.10;;;19.80;99.90;;;;;;5114612;28;20533;-77
2021/07/11 05:55:10;;;;;;;4.97;3.33;;;19.90;99.90;;;;;;5116287;28;20583;-76
2021/07/11 05:57:36;;;;;;;5.33;3.27;;;20.20;99.90;;;;;;5099868;28;20179;-75
2021/07/11 06:00:08;;;;;;;7.07;3.20;;;20.30;99.90;;;;;;5082816;28;20204;-75
2021/07/11 06:02:33;;;;;;;4.33;3.60;;;20.40;99.90;;;;;;5081817;28;20199;-76
2021/07/11 06:04:59;;;;;;;6.93;3.33;;;20.50;99.90;;;;;;5065699;28;20173;-75
2021/07/11 06:07:24;;;;;;;4.60;3.17;;;20.90;99.90;;;;;;5092355;28;20177;-76
2021/07/11 06:09:50;;;;;;;5.00;3.07;;;20.80;99.90;;;;;;5092216;28;20175;-76
2021/07/11 06:12:16;;;;;;;5.50;3.47;;;20.80;99.90;;;;;;5091862;28;20219;-76
2021/07/11 06:14:42;;;;;;;5.03;3.37;;;20.90;99.90;;;;;;5073740;28;20173;-75
2021/07/11 06:17:07;;;;;;;6.17;3.20;;;20.70;99.90;;;;;;5054539;28;20673;-75
2021/07/11 06:19:33;;;;;;;6.17;3.83;;;20.80;99.90;;;;;;5055341;28;20184;-75
2021/07/11 06:21:59;;;;;;;3.53;3.20;;;20.90;99.90;;;;;;5076572;28;20199;-74
2021/07/11 06:24:24;;;;;;;4.17;3.60;;;21.10;99.90;;;;;;5074152;28;20587;-76
2021/07/11 06:26:50;;;;;;;4.60;3.37;;;21.00;99.90;;;;;;5071394;28;20194;-74
2021/07/11 06:29:15;;;;;;;6.03;3.83;;;21.20;99.90;;;;;;5074279;28;20539;-75
2021/07/11 06:31:41;;;;;;;4.70;3.60;;;21.20;99.90;;;;;;5078260;28;20169;-75
2021/07/11 06:34:06;;;;;;;4.33;3.70;;;20.80;99.90;;;;;;5085649;28;20183;-75
2021/07/11 06:36:32;;;;;;;5.07;3.80;;;20.90;99.90;;;;;;5087669;22;20725;-71
2021/07/11 06:39:02;;;;;;;4.83;3.40;;;21.10;99.90;;;;;;5032611;28;20168;-71
2021/07/11 06:41:28;;;;;;;4.73;3.70;;;21.20;99.90;;;;;;5049507;28;20240;-71
2021/07/11 06:43:56;;;;;;;4.00;3.60;;;21.20;99.90;;;;;;5050415;28;20679;-70
2021/07/11 06:46:22;;;;;;;4.57;3.90;;;21.10;99.90;;;;;;5050700;28;20240;-70
2021/07/11 06:48:48;;;;;;;3.80;3.40;;;21.20;99.90;;;;;;5050629;28;20175;-70
2021/07/11 06:51:13;;;;;;;8.87;4.10;;;21.50;99.90;;;;;;5050293;28;20178;-70
2021/07/11 06:53:39;;;;;;;5.67;4.00;;;21.70;99.90;;;;;;5050491;28;20663;-71
2021/07/11 06:56:05;;;;;;;4.97;4.17;;;21.70;99.90;;;;;;5050082;28;20726;-70
2021/07/11 06:58:33;;;;;;;5.20;4.13;;;21.60;99.90;;;;;;5050725;28;20186;-71
2021/07/11 07:00:59;;;;;;;4.53;4.10;;;21.70;99.90;;;;;;5051671;28;20179;-70
2021/07/11 07:03:25;;;;;;;5.47;4.20;;;21.80;99.90;;;;;;5039956;28;20226;-70
2021/07/11 07:05:50;;;;;;;5.63;5.10;;;22.00;99.90;;;;;;5030700;28;20599;-71
2021/07/11 07:08:15;;;;;;;4.87;4.47;;;21.90;99.90;;;;;;5045125;28;20592;-72
2021/07/11 07:10:41;;;;;;;4.83;4.23;;;21.90;99.90;;;;;;5031617;28;20219;-69
2021/07/11 07:13:07;;;;;;;7.73;4.53;;;22.10;99.90;;;;;;5049819;28;20184;-72
2021/07/11 07:15:32;;;;;;;6.53;3.83;;;22.20;99.90;;;;;;5048408;28;20676;-71
2021/07/11 07:17:58;;;;;;;6.47;4.63;;;22.30;99.90;;;;;;5049921;28;20543;-70
2021/07/11 07:20:23;;;;;;;6.17;4.50;;;22.50;99.90;;;;;;5049871;28;20183;-71
2021/07/11 07:22:49;;;;;;;4.83;4.43;;;22.70;99.90;;;;;;5053124;28;20199;-71
2021/07/11 07:25:17;;;;;;;5.10;4.60;;;22.60;99.90;;;;;;5053927;28;20715;-71
2021/07/11 07:27:43;;;;;;;4.50;3.90;;;22.60;99.90;;;;;;5054220;28;20231;-71
2021/07/11 07:30:10;;;;;;;6.23;4.23;;;22.70;99.90;;;;;;5055196;28;20232;-71
2021/07/11 07:32:37;;;;;;;5.57;4.63;;;22.50;99.90;;;;;;5055651;28;20192;-71
2021/07/11 07:35:04;;;;;;;4.47;4.07;;;22.50;99.90;;;;;;5054596;28;20197;-71
2021/07/11 07:37:30;;;;;;;5.67;4.73;;;22.90;99.90;;;;;;5056391;28;20280;-70
2021/07/11 07:39:59;;;;;;;5.33;4.83;;;22.90;99.90;;;;;;5055614;28;20178;-71
2021/07/11 07:42:24;;;;;;;6.50;4.63;;;23.10;99.90;;;;;;5037344;28;20200;-71
2021/07/11 07:44:50;;;;;;;5.50;4.63;;;23.30;99.90;;;;;;5055056;28;20231;-70
2021/07/11 07:47:16;;;;;;;4.90;4.35;;;23.30;99.90;;;;;;5021275;28;20193;-71
2021/07/11 07:49:41;;;;;;;5.53;5.00;;;23.40;99.90;;;;;;5054517;28;20171;-71
2021/07/11 07:52:07;;;;;;;5.90;5.05;;;23.40;99.90;;;;;;5053123;28;20202;-71
2021/07/11 07:54:33;;;;;;;5.03;4.53;;;23.50;99.90;;;;;;5054679;28;20184;-71
2021/07/11 07:56:58;;;;;;;5.05;4.60;;;23.70;99.90;;;;;;5054779;28;20272;-71
2021/07/11 07:59:24;;;;;;;6.15;4.22;;;23.80;99.90;;;;;;5054374;28;20173;-72
2021/07/11 08:01:49;;;;;;;4.78;4.30;;;23.60;99.90;;;;;;5054000;28;20263;-71
2021/07/11 08:04:20;;;;;;;7.65;4.60;;;23.50;99.90;;;;;;5054609;28;20242;-70
2021/07/11 08:06:45;;;;;;;5.57;4.30;;;23.50;99.90;;;;;;5054970;28;20279;-69
2021/07/11 08:09:11;;;;;;;5.80;5.22;;;23.50;99.90;;;;;;5055974;28;20207;-70
2021/07/11 08:11:36;;;;;;;7.28;4.80;;;23.60;99.90;;;;;;5053403;28;20174;-70
2021/07/11 08:14:02;;;;;;;5.70;4.53;;;23.80;99.90;;;;;;5054635;28;20242;-69
2021/07/11 08:16:27;;;;;;;5.50;4.70;;;23.80;99.90;;;;;;5024745;28;20732;-69
2021/07/11 08:18:53;;;;;;;6.90;4.40;;;23.80;99.90;;;;;;5034343;28;20186;-69
2021/07/11 08:21:18;;;;;;;4.90;4.50;;;23.80;99.90;;;;;;5034025;28;20655;-70
2021/07/11 08:23:44;;;;;;;5.18;4.50;;;24.10;99.90;;;;;;5034329;28;20288;-70
2021/07/11 08:26:10;;;;;;;7.03;4.90;;;24.20;99.90;;;;;;5040488;28;20201;-69
2021/07/11 08:28:35;;;;;;;5.32;4.82;;;24.40;99.90;;;;;;5054272;28;20169;-70
2021/07/11 08:31:01;;;;;;;4.30;3.92;;;24.30;99.90;;;;;;5053708;28;20309;-70
2021/07/11 08:33:26;;;;;;;6.07;4.95;;;24.40;99.90;;;;;;5054042;28;20193;-70
2021/07/11 08:35:52;;;;;;;5.00;4.60;;;24.60;99.90;;;;;;5052475;28;20261;-70
2021/07/11 08:38:17;;;;;;;7.15;4.78;;;25.10;99.90;;;;;;5051805;28;20657;-70
2021/07/11 08:40:44;;;;;;;5.03;4.18;;;24.90;99.90;;;;;;5053062;28;20179;-71
2021/07/11 08:43:10;;;;;;;4.97;4.57;;;25.10;99.90;;;;;;5054987;28;20203;-70
2021/07/11 08:45:36;;;;;;;6.55;4.55;;;25.20;99.90;;;;;;5053197;28;20192;-70
2021/07/11 08:48:02;;;;;;;5.07;4.65;;;24.80;99.90;;;;;;5051307;28;20520;-70
2021/07/11 08:50:32;;;;;;;5.57;5.07;;;24.80;99.90;;;;;;5051672;28;20196;-71
2021/07/11 08:52:58;;;;;;;6.95;4.60;;;24.70;99.90;;;;;;5052744;28;20174;-71
2021/07/11 08:55:26;;;;;;;8.30;4.65;;;25.00;99.90;;;;;;5052902;28;20180;-72
2021/07/11 08:57:54;;;;;;;5.60;4.72;;;24.90;99.90;;;;;;5033148;28;20539;-71
2021/07/11 09:00:26;;;;;;;6.93;4.97;;;24.90;99.90;;;;;;5032576;28;20176;-71
2021/07/11 09:02:51;;;;;;;5.97;4.90;;;24.70;99.90;;;;;;5033027;28;20201;-71
2021/07/11 09:05:21;;;;;;;9.75;8.52;;;24.90;99.90;;;;;;5032352;28;20177;-71
2021/07/11 09:08:19;;;;;;;4.68;4.28;;;25.00;99.90;;;;;;5028233;28;20169;-71
2021/07/11 09:10:50;;;;;;;5.45;4.97;;;24.90;99.90;;;;;;5052127;28;20179;-71
2021/07/11 09:13:19;;;;;;;5.88;4.72;;;25.00;99.90;;;;;;5052459;28;20180;-71
2021/07/11 09:15:50;;;;;;;6.50;4.80;;;24.90;99.90;;;;;;5052312;28;20661;-71
2021/07/11 09:18:31;;;;;;;5.18;4.78;;;24.80;99.90;;;;;;5053021;28;20670;-71
2021/07/11 09:21:01;;;;;;;5.15;4.65;;;24.90;99.90;;;;;;5051324;28;20187;-71
2021/07/11 09:23:31;;;;;;;5.93;4.90;;;25.20;99.90;;;;;;5052125;28;20720;-70
2021/07/11 09:26:09;;;;;;;5.22;4.72;;;25.40;99.90;;;;;;5052376;28;20196;-71
2021/07/11 09:28:36;;;;;;;5.30;4.85;;;24.90;99.90;;;;;;5052218;28;20206;-71
2021/07/11 09:31:07;;;;;;;6.15;4.60;;;24.90;99.90;;;;;;5051547;28;20255;-70
2021/07/11 09:33:34;;;;;;;7.97;5.40;;;24.80;99.90;;;;;;5051975;28;20198;-71
2021/07/11 09:36:17;;;;;;;5.78;4.60;;;25.10;99.90;;;;;;5051821;28;20212;-70
2021/07/11 09:38:58;;;;;;;6.07;5.55;;;25.30;99.90;;;;;;5052314;28;20635;-71
2021/07/11 09:41:29;;;;;;;5.40;4.90;;;25.20;99.90;;;;;;5052300;28;20293;-71
2021/07/11 09:43:57;;;;;;;6.32;5.57;;;25.30;99.90;;;;;;5044467;28;20231;-71
2021/07/11 09:46:24;;;;;;;7.82;5.97;;;25.20;99.90;;;;;;5031923;28;20284;-71
2021/07/11 09:48:51;;;;;;;5.93;5.40;;;25.00;99.90;;;;;;5032052;28;20176;-71
2021/07/11 09:51:22;;;;;;;6.18;5.68;;;25.20;99.90;;;;;;5031677;28;20170;-71
2021/07/11 09:53:49;;;;;;;6.03;5.43;;;25.20;99.90;;;;;;5032065;28;20668;-71
2021/07/11 09:56:37;;;;;;;5.97;5.38;;;25.60;99.90;;;;;;5034730;28;20280;-70
2021/07/11 09:59:06;;;;;;;6.90;5.30;;;25.50;99.90;;;;;;5051886;28;20642;-70
2021/07/11 10:01:33;;;;;;;6.32;5.28;;;25.40;99.90;;;;;;5050925;28;20306;-70
2021/07/11 10:04:00;;;;;;;6.05;5.53;;;25.60;99.90;;;;;;5051552;28;20749;-71
2021/07/11 10:06:27;;;;;;;6.68;6.07;;;25.70;99.90;;;;;;5051340;28;20204;-70
2021/07/11 10:08:53;;;;;;;6.80;6.20;;;25.40;99.90;;;;;;5051386;28;20175;-70
2021/07/11 10:11:20;;;;;;;7.80;5.63;;;25.50;99.90;;;;;;5051024;28;20187;-71
2021/07/11 10:13:46;;;;;;;6.13;5.57;;;25.60;99.90;;;;;;5051570;28;20218;-71
2021/07/11 10:16:13;;;;;;;6.60;6.05;;;25.60;99.90;;;;;;5051367;28;20193;-71
2021/07/11 10:18:40;;;;;;;6.95;6.25;;;25.80;99.90;;;;;;5051423;28;20196;-70
2021/07/11 10:21:07;;;;;;;6.32;5.82;;;25.90;99.90;;;;;;5051534;28;20178;-70
2021/07/11 10:23:37;;;;;;;6.00;5.40;;;26.20;99.90;;;;;;5052248;28;20799;-70
2021/07/11 10:26:12;;;;;;;6.40;5.80;;;26.40;99.90;;;;;;5051171;28;20197;-70
2021/07/11 10:28:40;;;;;;;6.45;5.85;;;26.50;99.90;;;;;;5034831;28;20203;-71
2021/07/11 10:31:24;;;;;;;9.20;5.45;;;26.50;99.90;;;;;;5051021;28;20169;-71
2021/07/11 10:33:51;;;;;;;6.25;5.53;;;26.60;99.90;;;;;;5051886;28;20177;-71
2021/07/11 10:36:27;;;;;;;5.78;5.13;;;26.90;99.90;;;;;;5051423;28;20212;-71
2021/07/11 10:38:55;;;;;;;5.47;4.97;;;26.80;99.90;;;;;;5051420;28;20176;-71
2021/07/11 10:41:29;;;;;;;5.45;4.95;;;26.40;99.90;;;;;;5051497;28;20185;-71
2021/07/11 10:44:27;;;;;;;5.55;5.15;;;26.30;99.90;;;;;;5044143;28;20314;-71
2021/07/11 10:46:58;;;;;;;5.88;5.38;;;26.60;99.90;;;;;;5010927;28;20202;-71
2021/07/11 10:49:34;;;;;;;5.88;5.30;;;26.90;99.90;;;;;;5051497;28;20703;-71
2021/07/11 10:52:01;;;;;;;6.20;5.20;;;26.70;99.90;;;;;;5050773;28;20177;-71
2021/07/11 10:54:30;;;;;;;5.45;4.88;;;26.90;99.90;;;;;;5051442;28;20680;-71
2021/07/11 10:57:02;;;;;;;5.88;5.35;;;27.10;99.90;;;;;;5037394;28;20288;-71
2021/07/11 10:59:40;;;;;;;5.88;5.25;;;27.10;99.90;;;;;;5049638;28;20339;-71
2021/07/11 11:02:19;;;;;;;6.30;5.32;;;27.10;99.90;;;;;;5034860;28;20174;-71
2021/07/11 11:04:57;;;;;;;5.70;5.20;;;26.80;99.90;;;;;;5035787;28;20170;-71
2021/07/11 11:07:22;;;;;;;6.97;5.57;;;26.90;99.90;;;;;;5040762;28;20186;-71
2021/07/11 11:09:48;;;;;;;5.65;5.15;;;27.00;99.90;;;;;;5035461;28;20163;-71
2021/07/11 11:12:23;;;;;;;6.75;5.18;;;27.20;99.90;;;;;;5034033;28;20177;-71
2021/07/11 11:15:03;;;;;;;5.72;4.95;;;26.90;99.90;;;;;;5034443;28;20253;-70
2021/07/11 11:17:36;;;;;;;6.15;5.65;;;27.10;99.90;;;;;;5035160;28;20203;-70
2021/07/11 11:20:08;;;;;;;6.30;5.40;;;27.20;99.90;;;;;;5034811;28;20236;-70
2021/07/11 11:22:34;;;;;;;6.47;5.60;;;27.20;99.90;;;;;;5034521;28;20420;-69
2021/07/11 11:25:03;;;;;;;6.22;5.50;;;27.60;99.90;;;;;;5035536;28;20257;-70
2021/07/11 11:27:39;;;;;;;5.60;5.20;;;27.60;99.90;;;;;;5035175;28;20205;-71
2021/07/11 11:30:15;;;;;;;6.05;5.32;;;27.40;99.90;;;;;;5034557;28;20623;-71
2021/07/11 11:32:41;;;;;;;6.13;5.53;;;27.40;99.90;;;;;;5034872;28;20300;-71
2021/07/11 11:35:08;;;;;;;7.25;6.18;;;27.30;99.90;;;;;;5034278;28;20182;-71
2021/07/11 11:37:38;;;;;;;6.97;5.40;;;27.50;99.90;;;;;;5035632;28;20552;-70
2021/07/11 11:40:06;;;;;;;6.53;5.85;;;27.30;99.90;;;;;;5054475;28;20269;-71
2021/07/11 11:42:32;;;;;;;6.00;5.50;;;27.10;99.90;;;;;;5053568;28;20251;-71
2021/07/11 11:45:08;;;;;;;6.40;5.80;;;27.40;99.90;;;;;;5054222;28;20169;-69
2021/07/11 11:47:34;;;;;;;6.00;5.43;;;27.90;99.90;;;;;;5054428;28;20189;-71
2021/07/11 11:50:11;;;;;;;6.47;5.88;;;27.40;99.90;;;;;;5053973;28;20223;-71
2021/07/11 11:52:37;;;;;;;6.70;6.03;;;26.80;99.90;;;;;;5053771;28;20207;-71
2021/07/11 11:55:07;;;;;;;6.70;6.00;;;26.90;99.90;;;;;;5058827;28;20177;-71
2021/07/11 11:57:33;;;;;;;7.68;5.60;;;26.70;99.90;;;;;;5054927;28;20213;-71
2021/07/11 11:59:59;;;;;;;6.60;6.00;;;26.50;99.90;;;;;;5054219;28;20173;-71
2021/07/11 12:02:25;;;;;;;9.38;6.00;;;26.30;99.90;;;;;;5052878;28;20204;-71
2021/07/11 12:04:51;;;;;;;6.95;6.07;;;26.10;99.90;;;;;;5053817;28;20268;-71
2021/07/11 12:07:17;;;;;;;6.90;6.30;;;26.30;99.90;;;;;;5053073;28;20272;-71
2021/07/11 12:09:43;;;;;;;6.68;6.18;;;26.30;99.90;;;;;;5053474;28;20170;-71
2021/07/11 12:12:11;;;;;;;6.90;6.25;;;26.40;99.90;;;;;;5052907;28;20649;-71
2021/07/11 12:14:42;;;;;;;7.32;5.75;;;26.40;99.90;;;;;;5053469;28;20169;-71
2021/07/11 12:17:12;;;;;;;6.57;6.00;;;26.10;99.90;;;;;;5052799;28;20658;-71
2021/07/11 12:19:52;;;;;;;6.15;5.40;;;26.10;99.90;;;;;;5053678;28;20219;-71
2021/07/11 12:22:24;;;;;;;5.90;5.40;;;25.90;99.90;;;;;;5052950;28;20570;-71
2021/07/11 12:27:44;;;;;;;7.35;6.40;;;25.90;99.90;;;;;;5053321;28;20212;-70
2021/07/11 12:30:12;;;;;;;6.97;6.22;;;26.00;99.90;;;;;;5054007;28;20169;-70
2021/07/11 12:32:53;;;;;;;8.57;6.50;;;25.90;99.90;;;;;;5052986;28;20248;-70
2021/07/11 12:35:22;;;;;;;6.63;6.03;;;26.00;99.90;;;;;;5052818;28;20537;-70
2021/07/11 12:37:56;;;;;;;7.50;6.60;;;25.70;99.90;;;;;;5089809;22;20231;-75
2021/07/11 12:40:24;;;;;;;7.30;6.60;;;25.60;99.90;;;;;;5072823;28;20169;-74
2021/07/11 12:43:19;;;;;;;7.65;6.30;;;25.50;99.90;;;;;;5074826;28;20246;-76
2021/07/11 12:45:57;;;;;;;6.60;6.00;;;25.30;99.90;;;;;;5092888;28;20179;-76
2021/07/11 12:48:53;;;;;;;6.60;5.97;;;25.10;99.90;;;;;;5076472;28;20187;-75
2021/07/11 12:51:25;;;;;;;10.45;6.95;;;25.20;99.90;;;;;;5097619;28;20196;-77
2021/07/11 12:53:56;;;;;;;7.03;6.32;;;25.30;99.90;;;;;;5080198;28;20170;-76
2021/07/11 12:56:27;;;;;;;8.98;6.78;;;25.40;99.90;;;;;;5097743;28;20215;-76
2021/07/11 12:58:54;;;;;;;7.28;6.57;;;25.30;99.90;;;;;;5097666;28;20190;-76
2021/07/11 13:01:25;;;;;;;7.93;6.50;;;25.30;99.90;;;;;;5097204;28;20159;-77
2021/07/11 13:04:02;;;;;;;6.93;6.28;;;25.50;99.90;;;;;;5087001;28;20195;-76
2021/07/11 13:06:36;;;;;;;8.15;6.60;;;25.80;99.90;;;;;;5084408;28;20184;-76
2021/07/11 13:09:08;;;;;;;8.23;6.45;;;26.30;99.90;;;;;;5077980;28;20702;-76